Time;durP1;ratioP1;P1;durP2;ratioP2;P2;SDS_P1;SDS_P2;PMS_P1;PMS_P2;Temp;Humidity;BMP_temperature;BMP_pressure;BME280_temperature;BME280_humidity;BME280_pressure;Samples;Min_cycle;Max_cycle;Signal;HPM_P1;HPM_P2
2022/01/19 00:01:25;;;;;;;20.33;10.80;;;;;;;-1.11;100.00;98109.41;4981951;28;20118;-67
2022/01/19 00:03:51;;;;;;;17.98;9.77;;;;;;;-1.16;100.00;98097.53;4979947;28;20054;-66
2022/01/19 00:06:17;;;;;;;19.60;9.57;;;;;;;-1.20;100.00;98083.00;4966719;28;20050;-67
2022/01/19 00:08:42;;;;;;;20.63;9.52;;;;;;;-1.22;100.00;98074.38;4978196;28;20411;-66
2022/01/19 00:11:08;;;;;;;18.65;9.70;;;;;;;-1.28;100.00;98050.38;4954990;28;20039;-67
2022/01/19 00:13:34;;;;;;;19.90;9.90;;;;;;;-1.31;100.00;98048.22;4974506;28;20137;-67
2022/01/19 00:15:59;;;;;;;19.67;9.98;;;;;;;-1.36;100.00;98051.66;4977258;28;20042;-66
2022/01/19 00:18:25;;;;;;;20.85;9.65;;;;;;;-1.45;100.00;98054.00;4969372;28;20140;-66
2022/01/19 00:20:53;;;;;;;19.27;9.85;;;;;;;-1.52;100.00;98057.97;4977465;28;20404;-68
2022/01/19 00:23:20;;;;;;;18.98;10.05;;;;;;;-1.63;100.00;98054.38;4983536;28;20050;-67
2022/01/19 00:25:47;;;;;;;24.88;9.50;;;;;;;-1.72;100.00;98067.47;4979563;28;20078;-68
2022/01/19 00:28:13;;;;;;;16.30;8.88;;;;;;;-1.87;100.00;98080.72;4972383;28;20030;-68
2022/01/19 00:30:40;;;;;;;17.90;9.20;;;;;;;-2.00;100.00;98089.97;4977877;28;20046;-68
2022/01/19 00:33:05;;;;;;;15.70;9.48;;;;;;;-2.09;100.00;98086.13;4972723;28;20523;-64
2022/01/19 00:35:35;;;;;;;14.75;8.95;;;;;;;-2.11;100.00;98086.34;4975277;28;20049;-69
2022/01/19 00:38:02;;;;;;;22.48;10.65;;;;;;;-2.15;100.00;98086.03;4978542;28;20042;-68
2022/01/19 00:40:28;;;;;;;18.05;8.77;;;;;;;-2.13;100.00;98083.13;4959629;28;20054;-68
2022/01/19 00:42:53;;;;;;;22.00;9.48;;;;;;;-2.06;100.00;98083.75;4982614;28;20046;-66
2022/01/19 00:45:19;;;;;;;42.05;15.77;;;;;;;-1.96;100.00;98075.81;4971716;28;20068;-67
2022/01/19 00:47:44;;;;;;;32.08;12.63;;;;;;;-2.03;100.00;98072.50;4965562;28;20045;-68
2022/01/19 00:50:15;;;;;;;30.67;13.68;;;;;;;-1.98;100.00;98066.38;4986376;28;20121;-68
2022/01/19 00:52:41;;;;;;;25.98;12.82;;;;;;;-1.89;100.00;98067.56;4980876;28;20046;-68
2022/01/19 00:55:09;;;;;;;17.33;9.60;;;;;;;-1.88;100.00;98069.16;4974701;28;20057;-67
2022/01/19 00:57:35;;;;;;;19.65;10.13;;;;;;;-1.75;100.00;98068.78;4980701;28;20126;-69
2022/01/19 01:00:00;;;;;;;17.60;9.30;;;;;;;-1.65;100.00;98073.44;4981968;28;20123;-69
2022/01/19 01:02:26;;;;;;;16.08;9.52;;;;;;;-1.57;100.00;98067.63;4975873;28;20048;-69
2022/01/19 01:04:51;;;;;;;15.27;8.77;;;;;;;-1.38;100.00;98069.94;4985276;28;20062;-68
2022/01/19 01:07:19;;;;;;;18.50;10.18;;;;;;;-1.30;100.00;98074.81;4980788;28;20069;-69
2022/01/19 01:09:44;;;;;;;20.38;8.65;;;;;;;-1.31;100.00;98069.72;4993764;28;20501;-68
2022/01/19 01:12:12;;;;;;;16.75;9.73;;;;;;;-1.33;100.00;98064.59;4984151;28;20129;-68
2022/01/19 01:20:10;;;;;;;18.48;8.80;;;;;;;-1.10;100.00;98038.44;4975344;28;20046;-69
2022/01/19 01:22:37;;;;;;;17.52;9.48;;;;;;;-0.99;100.00;98032.03;4980703;28;20356;-69
2022/01/19 01:25:03;;;;;;;19.67;9.30;;;;;;;-0.85;100.00;98027.03;4977315;28;20057;-68
2022/01/19 01:27:28;;;;;;;16.13;8.85;;;;;;;-0.87;100.00;98026.47;4986227;28;20046;-69
2022/01/19 01:29:54;;;;;;;18.45;9.80;;;;;;;-1.07;100.00;98029.84;4983429;28;20049;-68
2022/01/19 01:32:19;;;;;;;17.88;10.70;;;;;;;-1.31;100.00;98037.47;4975020;28;20034;-69
2022/01/19 01:34:45;;;;;;;17.10;9.70;;;;;;;-1.34;100.00;98052.22;4981548;28;20109;-69
2022/01/19 01:37:10;;;;;;;21.33;9.80;;;;;;;-1.24;100.00;98063.06;4974643;28;20042;-69
2022/01/19 01:39:35;;;;;;;19.13;10.55;;;;;;;-1.14;100.00;98069.59;4974747;28;20046;-69
2022/01/19 01:42:07;;;;;;;19.08;9.48;;;;;;;-1.02;100.00;98065.66;4984225;28;20034;-69
2022/01/19 01:44:38;;;;;;;17.38;9.52;;;;;;;-0.88;100.00;98055.28;4995566;28;20057;-68
2022/01/19 01:47:04;;;;;;;20.38;10.57;;;;;;;-0.81;100.00;98058.53;4971403;28;20042;-67
2022/01/19 01:54:55;;;;;;;19.92;10.30;;;;;;;-0.96;100.00;98034.22;4980342;28;20073;-69
2022/01/19 01:57:21;;;;;;;15.50;9.18;;;;;;;-0.94;100.00;98034.75;4975164;28;20428;-69
2022/01/19 01:59:46;;;;;;;17.67;9.50;;;;;;;-0.88;100.00;98032.91;4980917;28;20134;-69
2022/01/19 02:02:12;;;;;;;16.85;9.77;;;;;;;-0.86;100.00;98028.91;4975094;28;20394;-69
2022/01/19 02:04:41;;;;;;;22.02;10.60;;;;;;;-0.81;100.00;98022.75;4979574;28;20411;-69
2022/01/19 02:09:38;;;;;;;;;;;;;;;-0.74;100.00;98019.81;4979777;28;20144;-69
2022/01/19 02:23:26;;;;;;;18.25;10.27;;;;;;;-1.06;100.00;97997.31;4973875;28;20397;-67
2022/01/19 02:25:56;;;;;;;17.85;10.25;;;;;;;-1.36;100.00;97992.53;4979443;28;20475;-67
2022/01/19 02:41:46;;;;;;;27.33;12.55;;;;;;;-1.45;100.00;97959.16;4978101;28;20039;-69
2022/01/19 02:44:15;;;;;;;24.98;11.63;;;;;;;-1.36;100.00;97953.03;4972590;28;20046;-67
2022/01/19 02:49:17;;;;;;;25.88;12.05;;;;;;;-1.26;100.00;97949.63;4974108;28;19914;-69
2022/01/19 02:51:45;;;;;;;22.35;11.80;;;;;;;-1.18;100.00;97957.19;4978543;28;20041;-68
2022/01/19 02:54:15;;;;;;;24.88;12.18;;;;;;;-0.91;100.00;97955.47;4972833;28;20386;-70
2022/01/19 02:56:44;;;;;;;19.45;9.93;;;;;;;-0.74;100.00;97944.50;4980087;28;20043;-68
2022/01/19 03:09:41;;;;;;;20.92;10.13;;;;;;;-0.74;100.00;97929.16;4982362;28;20487;-68
2022/01/19 03:12:07;;;;;;;21.98;11.20;;;;;;;-0.63;100.00;97930.84;4957993;28;20037;-68
2022/01/19 03:14:33;;;;;;;19.80;10.32;;;;;;;-0.49;100.00;97936.50;4977693;28;20046;-69
2022/01/19 03:16:58;;;;;;;19.13;10.25;;;;;;;-0.49;100.00;97938.41;4980648;28;20427;-68
2022/01/19 03:19:26;;;;;;;26.88;11.20;;;;;;;-0.53;100.00;97937.31;4974566;28;20612;-69
2022/01/19 03:21:51;;;;;;;20.35;10.55;;;;;;;-0.42;100.00;97945.16;4979528;28;20046;-70
2022/01/19 03:24:17;;;;;;;20.17;10.82;;;;;;;-0.31;100.00;97937.09;4960835;28;20104;-69
2022/01/19 03:26:42;;;;;;;21.35;10.30;;;;;;;-0.24;100.00;97935.78;4977822;28;20259;-69
2022/01/19 03:29:08;;;;;;;20.98;10.32;;;;;;;-0.22;100.00;97943.59;4975001;28;20493;-68
2022/01/19 03:31:34;;;;;;;21.98;10.05;;;;;;;-0.25;100.00;97936.88;4978980;28;20120;-69
2022/01/19 03:33:59;;;;;;;19.90;9.40;;;;;;;-0.32;100.00;97938.19;4960792;28;20519;-69
2022/01/19 03:36:25;;;;;;;19.20;10.57;;;;;;;-0.54;100.00;97933.00;4974478;28;20046;-69
2022/01/19 03:38:50;;;;;;;22.95;11.68;;;;;;;-0.68;100.00;97930.81;4965752;28;20050;-69
2022/01/19 03:41:16;;;;;;;20.77;11.48;;;;;;;-0.78;100.00;97922.69;4972441;28;20503;-68
2022/01/19 03:43:41;;;;;;;21.30;11.07;;;;;;;-1.05;100.00;97920.16;4980279;28;20041;-68
2022/01/19 03:46:13;;;;;;;21.10;10.80;;;;;;;-1.11;100.00;97922.00;4973923;28;20045;-67
2022/01/19 03:49:08;;;;;;;26.40;12.27;;;;;;;-1.14;100.00;97919.81;4978511;28;20077;-67
2022/01/19 03:51:28;;;;;;;20.67;12.20;;;;;;;-1.18;100.00;97926.81;4978425;28;20054;-68
2022/01/19 03:53:53;;;;;;;26.50;11.93;;;;;;;-1.21;100.00;97921.94;4984399;28;20050;-68
2022/01/19 03:56:19;;;;;;;22.85;12.48;;;;;;;-1.09;100.00;97916.38;4957813;28;20042;-68
2022/01/19 03:58:44;;;;;;;26.05;11.88;;;;;;;-1.02;100.00;97912.38;4976205;28;20065;-68
2022/01/19 04:01:10;;;;;;;29.10;13.27;;;;;;;-1.04;100.00;97914.50;4947837;28;20050;-68
2022/01/19 04:06:25;;;;;;;24.02;12.00;;;;;;;-0.70;100.00;97895.28;4970882;28;20050;-69
2022/01/19 04:08:50;;;;;;;24.92;12.55;;;;;;;-0.79;100.00;97900.38;4974740;28;20046;-68
2022/01/19 04:11:19;;;;;;;27.90;12.60;;;;;;;-0.82;100.00;97900.09;4967350;28;20057;-68
2022/01/19 04:13:58;;;;;;;21.42;12.52;;;;;;;-0.71;100.00;97887.47;4977429;28;20041;-68
2022/01/19 04:16:24;;;;;;;22.35;11.50;;;;;;;-0.75;100.00;97894.47;4974789;28;20050;-68
2022/01/19 04:18:56;;;;;;;25.15;12.95;;;;;;;-0.83;100.00;97890.38;4982980;28;20042;-66
2022/01/19 04:21:21;;;;;;;24.25;12.05;;;;;;;-0.78;100.00;97893.09;4966657;28;20042;-68
2022/01/19 04:23:48;;;;;;;23.50;12.77;;;;;;;-0.64;100.00;97878.06;4980606;28;20057;-69
2022/01/19 04:26:13;;;;;;;23.20;11.98;;;;;;;-0.44;100.00;97880.00;4975201;28;20138;-68
2022/01/19 04:28:39;;;;;;;25.58;12.23;;;;;;;-0.63;100.00;97881.56;4979834;28;20140;-68
2022/01/19 04:31:04;;;;;;;23.27;11.88;;;;;;;-0.82;100.00;97873.19;4978392;28;20399;-66
2022/01/19 04:33:30;;;;;;;26.20;13.20;;;;;;;-0.87;100.00;97871.28;4981065;28;20722;-68
2022/01/19 04:36:08;;;;;;;27.77;13.65;;;;;;;-0.88;100.00;97882.28;4978638;28;20128;-68
2022/01/19 04:44:30;;;;;;;23.10;13.18;;;;;;;-0.66;100.00;97874.03;4981445;28;20454;-69
2022/01/19 05:05:30;;;;;;;21.85;12.80;;;;;;;-0.66;100.00;97871.34;4976432;28;20008;-69
2022/01/19 05:08:10;;;;;;;20.90;11.65;;;;;;;-0.65;100.00;97878.34;4962077;28;20042;-68
2022/01/19 05:15:48;;;;;;;23.92;12.43;;;;;;;-0.29;100.00;97864.97;4990494;28;20049;-66
2022/01/19 05:18:14;;;;;;;24.27;11.77;;;;;;;-0.20;100.00;97861.47;4975559;28;20035;-67
2022/01/19 05:20:40;;;;;;;20.55;11.73;;;;;;;-0.17;100.00;97862.00;4982629;28;20042;-67
2022/01/19 05:23:05;;;;;;;21.08;11.57;;;;;;;-0.13;100.00;97860.41;4976995;28;20045;-67
2022/01/19 05:25:31;;;;;;;20.80;11.98;;;;;;;-0.09;100.00;97861.47;4964293;28;20472;-67
2022/01/19 05:27:56;;;;;;;24.30;11.57;;;;;;;-0.07;100.00;97856.66;4981228;28;20046;-67
2022/01/19 05:30:22;;;;;;;21.08;11.52;;;;;;;-0.11;100.00;97861.75;4977931;28;20548;-68
2022/01/19 05:32:48;;;;;;;22.02;11.07;;;;;;;-0.21;100.00;97867.13;4982392;28;20049;-68
2022/01/19 05:35:14;;;;;;;21.40;11.93;;;;;;;-0.23;100.00;97856.63;4957359;28;20169;-68
2022/01/19 05:37:40;;;;;;;18.25;11.15;;;;;;;-0.21;100.00;97851.78;4980955;28;20039;-68
2022/01/19 05:40:08;;;;;;;25.25;12.30;;;;;;;-0.18;100.00;97855.00;4973692;28;20133;-66
2022/01/19 05:42:34;;;;;;;27.10;12.90;;;;;;;-0.25;100.00;97853.41;4998152;28;20050;-66
2022/01/19 05:45:00;;;;;;;31.58;16.23;;;;;;;-0.22;100.00;97854.72;4994701;28;20526;-67
2022/01/19 05:47:26;;;;;;;41.55;20.30;;;;;;;-0.12;100.00;97845.88;4977309;28;20050;-68
2022/01/19 05:49:52;;;;;;;27.60;15.38;;;;;;;-0.17;100.00;97845.88;4981919;28;20557;-68
2022/01/19 05:52:19;;;;;;;32.17;15.27;;;;;;;-0.23;100.00;97845.84;4976361;28;20038;-68
2022/01/19 05:54:44;;;;;;;26.75;14.02;;;;;;;-0.15;100.00;97839.13;4981359;28;20394;-69
2022/01/19 05:57:10;;;;;;;24.15;13.32;;;;;;;-0.11;100.00;97837.53;4977168;28;20119;-68
2022/01/19 05:59:35;;;;;;;26.38;13.77;;;;;;;-0.13;100.00;97839.66;4981212;28;20042;-68
2022/01/19 06:02:01;;;;;;;26.80;13.15;;;;;;;-0.14;100.00;97839.94;4979396;28;20054;-67
2022/01/19 06:04:26;;;;;;;24.60;12.25;;;;;;;-0.38;100.00;97832.38;4976400;28;20038;-68
2022/01/19 06:06:55;;;;;;;24.05;12.80;;;;;;;-0.59;100.00;97834.25;4982130;28;20101;-69
2022/01/19 06:10:08;;;;;;;29.00;12.70;;;;;;;-0.67;100.00;97834.75;4977464;28;20034;-67
2022/01/19 06:12:09;;;;;;;26.40;12.75;;;;;;;-0.85;100.00;97830.66;4974393;28;20649;-68
2022/01/19 06:14:36;;;;;;;22.05;11.63;;;;;;;-0.88;100.00;97833.88;4981874;28;20046;-68
2022/01/19 06:17:03;;;;;;;27.08;13.70;;;;;;;-0.99;100.00;97824.97;4980121;28;20122;-67
2022/01/19 06:19:28;;;;;;;25.90;13.15;;;;;;;-0.98;100.00;97824.69;4962022;28;20054;-68
2022/01/19 06:21:54;;;;;;;22.48;13.20;;;;;;;-0.89;100.00;97819.63;4980214;28;20046;-69
2022/01/19 06:24:20;;;;;;;26.90;13.55;;;;;;;-0.75;100.00;97813.75;4972866;28;20034;-69
2022/01/19 06:26:46;;;;;;;28.55;12.90;;;;;;;-0.68;100.00;97823.19;4978831;28;20057;-69
2022/01/19 06:29:12;;;;;;;28.52;14.80;;;;;;;-0.62;100.00;97815.94;4980180;28;20042;-68
2022/01/19 06:31:37;;;;;;;24.13;13.00;;;;;;;-0.55;100.00;97815.69;4987542;28;20034;-68
2022/01/19 06:34:03;;;;;;;29.40;14.50;;;;;;;-0.27;100.00;97820.56;4976922;28;20038;-66
2022/01/19 06:36:28;;;;;;;30.73;16.05;;;;;;;-0.21;100.00;97813.28;4958984;28;20043;-69
2022/01/19 06:38:54;;;;;;;32.30;15.43;;;;;;;-0.27;100.00;97803.56;4992571;28;20165;-69
2022/01/19 06:41:19;;;;;;;40.35;18.08;;;;;;;-0.22;100.00;97804.41;4975042;28;20139;-66
2022/01/19 06:43:45;;;;;;;34.90;16.60;;;;;;;-0.23;100.00;97807.34;4977247;28;20038;-68
2022/01/19 06:46:10;;;;;;;31.65;16.05;;;;;;;-0.21;100.00;97806.00;4975808;28;20078;-68
2022/01/19 06:48:36;;;;;;;36.63;17.13;;;;;;;-0.19;100.00;97803.03;4972768;28;20045;-69
2022/01/19 06:51:02;;;;;;;32.15;15.82;;;;;;;-0.20;100.00;97802.25;4969716;28;20038;-67
2022/01/19 06:53:28;;;;;;;29.92;15.32;;;;;;;-0.20;100.00;97810.31;4975855;28;20065;-66
2022/01/19 06:55:57;;;;;;;37.83;18.73;;;;;;;-0.17;100.00;97803.56;5001529;23;20058;-64
2022/01/19 06:58:27;;;;;;;;;;;;;;;-0.31;100.00;97803.28;4976823;28;20537;-65
2022/01/19 07:00:52;;;;;;;40.35;18.05;;;;;;;-0.40;100.00;97799.53;4986632;28;19913;-65
2022/01/19 07:03:18;;;;;;;39.53;19.55;;;;;;;-0.49;100.00;97793.88;4971484;28;20034;-66
2022/01/19 07:05:44;;;;;;;41.95;20.70;;;;;;;-0.54;100.00;97795.75;4979710;28;20129;-66
2022/01/19 07:08:09;;;;;;;40.53;20.67;;;;;;;-0.46;100.00;97797.91;4955547;28;20118;-66
2022/01/19 07:10:35;;;;;;;50.35;21.38;;;;;;;-0.45;100.00;97799.53;4978340;28;20053;-65
2022/01/19 07:13:02;;;;;;;53.85;23.02;;;;;;;-0.41;100.00;97792.53;4981834;28;20423;-66
2022/01/19 07:15:28;;;;;;;46.50;21.67;;;;;;;-0.43;100.00;97798.19;4969283;28;20106;-66
2022/01/19 07:17:53;;;;;;;49.90;23.20;;;;;;;-0.41;100.00;97797.94;4988970;28;20034;-65
2022/01/19 07:20:19;;;;;;;49.97;22.27;;;;;;;-0.30;100.00;97793.34;4975550;28;20380;-66
2022/01/19 07:22:44;;;;;;;55.67;23.23;;;;;;;-0.29;100.00;97793.09;4962412;28;20471;-67
2022/01/19 07:25:10;;;;;;;52.42;23.83;;;;;;;-0.21;100.00;97791.75;4972980;28;20121;-65
2022/01/19 07:27:36;;;;;;;57.25;24.70;;;;;;;-0.14;100.00;97788.78;4972716;28;20046;-63
2022/01/19 07:30:04;;;;;;;57.30;25.17;;;;;;;-0.15;100.00;97790.66;4975689;28;20550;-67
2022/01/19 07:32:33;;;;;;;55.53;25.58;;;;;;;0.06;100.00;97785.25;4978900;28;20057;-64
2022/01/19 07:34:59;;;;;;;54.00;25.17;;;;;;;0.35;100.00;97785.47;4974712;28;20054;-66
2022/01/19 07:37:25;;;;;;;53.50;23.40;;;;;;;0.41;100.00;97792.44;4962864;28;20053;-63
2022/01/19 07:39:51;;;;;;;56.75;27.05;;;;;;;0.30;100.00;97791.66;4981172;28;20057;-66
2022/01/19 07:42:16;;;;;;;53.30;24.08;;;;;;;0.30;100.00;97788.16;4973905;28;20116;-68
2022/01/19 07:44:41;;;;;;;60.45;27.40;;;;;;;0.26;100.00;97787.09;4980225;28;20070;-66
2022/01/19 07:47:07;;;;;;;63.95;27.83;;;;;;;0.28;100.00;97785.75;4973621;28;20049;-67
2022/01/19 07:49:35;;;;;;;57.28;25.33;;;;;;;0.25;100.00;97783.59;4977947;28;20129;-64
2022/01/19 07:52:01;;;;;;;57.83;25.60;;;;;;;0.12;100.00;97782.25;4960741;28;20174;-64
2022/01/19 07:54:27;;;;;;;62.50;25.70;;;;;;;0.26;100.00;97776.31;4969560;28;20133;-66
2022/01/19 07:56:52;;;;;;;60.40;26.50;;;;;;;0.20;100.00;97786.31;4979223;28;20038;-67
2022/01/19 07:59:17;;;;;;;59.67;26.58;;;;;;;0.23;100.00;97785.75;4966527;28;20058;-65
2022/01/19 08:01:43;;;;;;;64.47;27.60;;;;;;;0.27;100.00;97788.69;4977166;28;20042;-67
2022/01/19 08:04:09;;;;;;;57.55;26.73;;;;;;;0.37;100.00;97786.00;4967595;28;20045;-66
2022/01/19 08:06:35;;;;;;;58.35;25.58;;;;;;;0.43;100.00;97787.59;4976169;28;20390;-65
2022/01/19 08:09:00;;;;;;;57.17;25.00;;;;;;;0.78;100.00;97790.47;4977909;28;20137;-66
2022/01/19 08:11:26;;;;;;;57.13;27.00;;;;;;;0.78;100.00;97788.56;4973461;28;20093;-67
2022/01/19 08:13:52;;;;;;;55.45;25.75;;;;;;;0.80;100.00;97780.19;4956750;28;20050;-66
2022/01/19 08:16:18;;;;;;;56.58;27.38;;;;;;;0.82;100.00;97789.63;4970287;28;20039;-66
2022/01/19 08:18:44;;;;;;;57.88;24.92;;;;;;;0.87;100.00;97791.50;4978596;28;20049;-65
2022/01/19 08:21:09;;;;;;;57.45;26.05;;;;;;;0.77;100.00;97786.94;4961737;28;20066;-67
2022/01/19 08:23:34;;;;;;;60.20;28.55;;;;;;;0.78;100.00;97793.16;4979095;28;20454;-68
2022/01/19 08:26:00;;;;;;;54.42;25.67;;;;;;;0.95;100.00;97783.63;4980139;28;20138;-67
2022/01/19 08:28:25;;;;;;;58.05;27.45;;;;;;;0.82;100.00;97784.22;4978391;28;20038;-66
2022/01/19 08:30:51;;;;;;;56.28;25.50;;;;;;;0.84;100.00;97776.66;4976344;28;20082;-65
2022/01/19 08:33:16;;;;;;;56.28;25.90;;;;;;;0.95;100.00;97772.00;4971519;28;20034;-66
2022/01/19 08:35:42;;;;;;;58.00;26.85;;;;;;;0.90;100.00;97769.34;4977728;28;20041;-65
2022/01/19 08:38:08;;;;;;;58.35;25.92;;;;;;;0.87;100.00;97772.59;4970292;28;20180;-65
2022/01/19 08:40:36;;;;;;;60.72;26.27;;;;;;;0.90;100.00;97772.03;4977216;28;20386;-66
2022/01/19 08:43:02;;;;;;;60.78;26.48;;;;;;;1.06;100.00;97775.47;4976162;28;20047;-66
2022/01/19 08:45:29;;;;;;;63.85;27.15;;;;;;;1.30;100.00;97771.00;4973626;28;20046;-65
2022/01/19 08:47:54;;;;;;;60.92;27.40;;;;;;;1.44;100.00;97768.50;4976780;28;20042;-65
2022/01/19 08:50:20;;;;;;;65.80;29.25;;;;;;;1.67;100.00;97774.25;4959497;28;20549;-66
2022/01/19 08:52:46;;;;;;;59.00;27.17;;;;;;;1.46;100.00;97782.53;4979686;28;20069;-64
2022/01/19 08:55:12;;;;;;;60.05;26.75;;;;;;;1.62;100.00;97780.53;4969733;28;20147;-68
2022/01/19 08:57:38;;;;;;;61.67;25.58;;;;;;;1.80;100.00;97779.03;4977948;28;20035;-65
2022/01/19 09:00:07;;;;;;;57.70;26.33;;;;;;;1.78;99.88;97774.97;4973001;28;20046;-66
2022/01/19 09:02:32;;;;;;;55.08;24.95;;;;;;;1.38;100.00;97779.59;4977747;28;20050;-66
2022/01/19 09:04:58;;;;;;;63.33;28.67;;;;;;;1.33;100.00;97778.56;4980852;28;20048;-66
2022/01/19 09:07:23;;;;;;;53.80;26.33;;;;;;;1.02;100.00;97771.72;4972736;28;20547;-66
2022/01/19 09:09:49;;;;;;;56.88;26.45;;;;;;;1.25;100.00;97772.94;4980832;28;20050;-67
2022/01/19 09:12:14;;;;;;;57.90;26.58;;;;;;;1.30;100.00;97765.63;4974579;28;20133;-65
2022/01/19 09:14:40;;;;;;;60.00;26.50;;;;;;;1.39;100.00;97757.72;4977089;28;20115;-66
2022/01/19 09:17:07;;;;;;;53.47;24.98;;;;;;;1.67;100.00;97768.84;4971562;28;20046;-67
2022/01/19 09:19:35;;;;;;;58.40;25.75;;;;;;;1.86;98.58;97761.66;4972102;28;20061;-65
2022/01/19 09:22:03;;;;;;;56.30;25.92;;;;;;;1.78;98.85;97767.66;4972354;28;20050;-65
2022/01/19 09:24:29;;;;;;;55.92;25.00;;;;;;;1.89;98.96;97768.41;4971346;28;20046;-67
2022/01/19 09:26:55;;;;;;;49.17;24.40;;;;;;;1.79;98.65;97763.91;4982037;28;20082;-66
2022/01/19 09:29:20;;;;;;;51.92;23.90;;;;;;;2.06;98.67;97776.88;4967298;28;20128;-67
2022/01/19 09:31:46;;;;;;;51.20;23.98;;;;;;;2.27;97.12;97772.09;4970431;28;20126;-67
2022/01/19 09:34:15;;;;;;;87.15;38.35;;;;;;;2.37;95.29;97776.59;4971368;28;20382;-67
2022/01/19 09:36:45;;;;;;;57.23;24.93;;;;;;;2.44;95.19;97777.03;4973076;28;20077;-67
2022/01/19 09:39:12;;;;;;;54.03;25.00;;;;;;;2.26;93.54;97772.38;4968570;28;20294;-65
2022/01/19 09:41:38;;;;;;;53.60;24.50;;;;;;;2.21;94.73;97775.13;4976851;28;20042;-67
2022/01/19 09:44:04;;;;;;;53.92;23.85;;;;;;;2.51;93.61;97768.59;4976208;28;20778;-66
2022/01/19 09:46:30;;;;;;;53.75;25.45;;;;;;;2.85;90.75;97771.16;4980540;28;20057;-67
2022/01/19 09:48:59;;;;;;;49.75;23.50;;;;;;;3.10;90.14;97766.53;4972396;28;20038;-66
2022/01/19 09:51:24;;;;;;;51.08;23.55;;;;;;;3.58;87.45;97774.50;4956382;28;20049;-66
2022/01/19 09:53:49;;;;;;;48.03;23.25;;;;;;;3.35;87.70;97770.78;4974218;28;20047;-65
2022/01/19 09:56:17;;;;;;;49.63;24.27;;;;;;;3.29;88.47;97766.50;4954162;28;20538;-66
2022/01/19 09:58:42;;;;;;;51.65;24.50;;;;;;;3.51;87.71;97774.06;4969242;28;20047;-66
2022/01/19 10:01:08;;;;;;;49.30;23.63;;;;;;;3.82;85.08;97768.16;4965265;28;20499;-64
2022/01/19 10:03:34;;;;;;;47.45;23.17;;;;;;;3.90;84.67;97759.34;4973711;28;20755;-66
2022/01/19 10:06:08;;;;;;;53.03;24.52;;;;;;;4.36;82.93;97763.97;4966401;28;20038;-68
2022/01/19 10:08:41;;;;;;;46.72;22.15;;;;;;;4.78;81.54;97750.41;4976257;28;20085;-65
2022/01/19 10:11:15;;;;;;;47.85;22.35;;;;;;;5.61;77.11;97747.47;4975731;28;20380;-68
2022/01/19 10:17:00;;;;;;;54.92;24.35;;;;;;;6.56;70.78;97740.19;4973347;28;20146;-66
2022/01/19 10:19:34;;;;;;;54.13;22.90;;;;;;;7.96;65.93;97732.94;4965122;28;20047;-66
2022/01/19 10:22:13;;;;;;;43.72;22.35;;;;;;;7.70;65.80;97731.03;4976179;28;20289;-67
2022/01/19 10:24:52;;;;;;;48.08;23.38;;;;;;;7.62;66.67;97723.69;4967854;28;20034;-65
2022/01/19 10:27:22;;;;;;;43.17;22.52;;;;;;;7.58;65.00;97723.53;4965245;28;20098;-66
2022/01/19 10:29:51;;;;;;;41.90;22.20;;;;;;;7.66;65.51;97722.72;4971160;28;20035;-66
2022/01/19 10:32:19;;;;;;;37.42;19.75;;;;;;;8.02;62.46;97718.78;4968239;28;20048;-65
2022/01/19 10:34:44;;;;;;;38.17;19.67;;;;;;;7.55;63.84;97715.19;4945499;28;20498;-65
2022/01/19 10:37:10;;;;;;;39.25;21.40;;;;;;;7.25;64.69;97709.56;4956611;28;20070;-66
2022/01/19 10:39:43;;;;;;;42.03;21.55;;;;;;;7.86;62.71;97701.34;4962416;28;20137;-67
2022/01/19 10:42:17;;;;;;;39.45;20.63;;;;;;;7.83;62.50;97699.25;4965419;28;20054;-65
2022/01/19 10:44:55;;;;;;;39.20;20.52;;;;;;;8.11;60.27;97699.69;4969986;28;20112;-66
2022/01/19 10:47:45;;;;;;;42.08;21.92;;;;;;;7.01;65.07;97694.50;4967358;28;20042;-66
2022/01/19 10:50:33;;;;;;;40.67;21.08;;;;;;;7.41;65.10;97694.34;4963872;28;20043;-65
2022/01/19 10:53:01;;;;;;;39.00;21.20;;;;;;;6.42;67.71;97683.94;4968646;28;20050;-65
2022/01/19 10:55:31;;;;;;;42.17;21.48;;;;;;;7.10;67.19;97683.59;4957056;28;20051;-66
2022/01/19 10:58:00;;;;;;;37.17;20.60;;;;;;;7.46;66.21;97682.47;4970875;28;20070;-67
2022/01/19 11:00:30;;;;;;;46.08;21.08;;;;;;;7.92;63.77;97683.66;4967145;28;20038;-66
2022/01/19 11:03:14;;;;;;;40.97;21.88;;;;;;;8.21;61.89;97682.13;4964126;28;20043;-65
2022/01/19 11:05:41;;;;;;;48.30;21.20;;;;;;;8.02;61.77;97680.59;4963653;28;20104;-65
2022/01/19 11:08:08;;;;;;;39.72;20.98;;;;;;;7.97;64.00;97678.03;4964213;28;20051;-65
2022/01/19 11:10:34;;;;;;;42.55;22.35;;;;;;;7.83;63.20;97677.44;4962115;28;20052;-67
2022/01/19 11:12:59;;;;;;;40.17;21.30;;;;;;;7.55;63.10;97664.19;4958267;28;20065;-66
2022/01/19 11:15:26;;;;;;;39.65;22.48;;;;;;;7.35;64.71;97670.31;4963691;28;20546;-66
2022/01/19 11:17:51;;;;;;;37.90;20.75;;;;;;;7.84;63.81;97666.22;4965528;28;20053;-65
2022/01/19 11:20:20;;;;;;;40.22;21.60;;;;;;;7.42;63.18;97655.06;4959455;28;20432;-64
2022/01/19 11:23:13;;;;;;;38.03;20.58;;;;;;;7.47;63.64;97645.91;4958731;28;20042;-65
2022/01/19 11:25:51;;;;;;;40.85;20.95;;;;;;;7.88;62.99;97643.75;4967035;28;20133;-64
2022/01/19 11:28:28;;;;;;;39.47;20.55;;;;;;;7.98;61.84;97630.56;4957082;28;20034;-65
2022/01/19 11:30:54;;;;;;;45.88;22.80;;;;;;;7.12;64.72;97623.34;4957044;28;20141;-66
2022/01/19 11:33:27;;;;;;;38.20;20.30;;;;;;;7.82;63.93;97621.31;4978231;28;20053;-67
2022/01/19 11:35:52;;;;;;;45.95;22.17;;;;;;;8.06;62.57;97611.75;4972012;28;20185;-66
2022/01/19 11:38:40;;;;;;;34.33;19.27;;;;;;;7.73;62.67;97601.44;4972251;28;20167;-67
2022/01/19 11:41:09;;;;;;;45.58;21.65;;;;;;;8.13;62.07;97601.13;4965213;28;20039;-67
2022/01/19 11:43:37;;;;;;;39.90;20.27;;;;;;;7.78;61.99;97601.28;4960911;28;20053;-65
2022/01/19 11:46:05;;;;;;;40.53;21.38;;;;;;;8.77;58.59;97602.88;4973176;28;20197;-70
2022/01/19 11:48:35;;;;;;;37.38;20.95;;;;;;;8.44;60.05;97600.03;4973899;28;20555;-66
2022/01/19 11:51:18;;;;;;;;;;;;;;;8.52;60.20;97602.72;4978942;28;20508;-67
2022/01/19 11:54:02;;;;;;;38.05;18.17;;;;;;;7.94;60.80;97588.69;4972876;28;19918;-65
2022/01/19 11:56:28;;;;;;;39.65;20.65;;;;;;;7.79;61.22;97587.28;4960241;28;20053;-65
2022/01/19 11:59:08;;;;;;;38.03;20.02;;;;;;;7.76;62.76;97582.50;4973356;28;20411;-65
2022/01/19 12:01:36;;;;;;;35.15;18.98;;;;;;;7.83;61.83;97573.81;4961537;28;20098;-64
2022/01/19 12:04:18;;;;;;;37.45;20.67;;;;;;;9.02;58.08;97562.00;4968289;28;20049;-68
2022/01/19 12:06:44;;;;;;;41.65;20.08;;;;;;;7.04;63.20;97556.84;4973716;28;20051;-67
2022/01/19 12:09:12;;;;;;;33.33;18.50;;;;;;;6.95;63.82;97553.34;4972863;28;20448;-66
2022/01/19 12:11:42;;;;;;;39.80;19.10;;;;;;;6.97;64.83;97551.09;4966948;28;20038;-65
2022/01/19 12:17:00;;;;;;;37.63;18.88;;;;;;;6.94;64.29;97551.75;4956258;28;20049;-66
2022/01/19 12:19:28;;;;;;;36.08;18.60;;;;;;;6.92;64.98;97546.63;4966745;28;20454;-65
2022/01/19 12:22:00;;;;;;;38.38;18.25;;;;;;;7.25;64.12;97533.25;4972310;28;20081;-67
2022/01/19 12:24:29;;;;;;;40.53;18.45;;;;;;;7.32;62.88;97537.41;4965589;28;20787;-65
2022/01/19 12:27:06;;;;;;;32.42;18.10;;;;;;;6.83;64.91;97529.50;4977294;28;20042;-66
2022/01/19 12:29:36;;;;;;;38.17;18.17;;;;;;;7.51;64.33;97531.56;4975400;28;20050;-65
2022/01/19 12:32:05;;;;;;;41.63;17.55;;;;;;;8.22;62.15;97520.81;4972830;28;20070;-65
2022/01/19 12:34:53;;;;;;;37.87;18.50;;;;;;;8.80;59.59;97521.06;4937594;28;20068;-66
2022/01/19 12:37:27;;;;;;;37.28;18.75;;;;;;;8.25;60.43;97513.91;4971307;28;20153;-66
2022/01/19 12:39:54;;;;;;;34.30;18.98;;;;;;;7.04;65.33;97508.63;4973810;28;20081;-65
2022/01/19 12:42:27;;;;;;;34.20;18.73;;;;;;;7.17;65.87;97511.50;4971020;28;20073;-65
2022/01/19 12:44:56;;;;;;;35.35;19.45;;;;;;;7.33;64.58;97498.94;4977843;28;20515;-65
2022/01/19 12:47:24;;;;;;;43.92;19.73;;;;;;;7.48;65.00;97500.34;4971960;28;20057;-65
2022/01/19 12:50:09;;;;;;;47.78;19.65;;;;;;;7.43;65.92;97492.31;4975849;28;20042;-65